sensor_id;sensor_type;location;lat;lon;timestamp;P1;durP1;ratioP1;P2;durP2;ratioP2
677;SDS011;321;48.814;9.132;2023-04-25T00:01:14;1.27;;;0.73;;
677;SDS011;321;48.814;9.132;2023-04-25T00:03:40;1.20;;;0.60;;
677;SDS011;321;48.814;9.132;2023-04-25T00:06:06;1.57;;;0.87;;
677;SDS011;321;48.814;9.132;2023-04-25T00:08:32;1.20;;;0.60;;
677;SDS011;321;48.814;9.132;2023-04-25T00:10:58;1.40;;;0.90;;
677;SDS011;321;48.814;9.132;2023-04-25T00:13:24;1.10;;;0.53;;
677;SDS011;321;48.814;9.132;2023-04-25T00:15:51;1.87;;;0.90;;
677;SDS011;321;48.814;9.132;2023-04-25T00:18:18;1.20;;;0.60;;
677;SDS011;321;48.814;9.132;2023-04-25T00:20:46;1.10;;;0.53;;
677;SDS011;321;48.814;9.132;2023-04-25T00:23:13;1.20;;;0.60;;
677;SDS011;321;48.814;9.132;2023-04-25T00:25:43;1.40;;;0.70;;
677;SDS011;321;48.814;9.132;2023-04-25T00:28:10;1.20;;;0.60;;
677;SDS011;321;48.814;9.132;2023-04-25T00:30:38;1.20;;;0.70;;
677;SDS011;321;48.814;9.132;2023-04-25T00:33:04;1.20;;;0.83;;
677;SDS011;321;48.814;9.132;2023-04-25T00:35:29;1.57;;;0.87;;
677;SDS011;321;48.814;9.132;2023-04-25T00:37:55;1.20;;;0.57;;
677;SDS011;321;48.814;9.132;2023-04-25T00:40:21;1.20;;;0.60;;
677;SDS011;321;48.814;9.132;2023-04-25T00:42:46;1.30;;;0.70;;
677;SDS011;321;48.814;9.132;2023-04-25T00:45:13;1.50;;;0.57;;
677;SDS011;321;48.814;9.132;2023-04-25T00:47:42;1.40;;;0.80;;
677;SDS011;321;48.814;9.132;2023-04-25T00:50:08;1.47;;;0.60;;
677;SDS011;321;48.814;9.132;2023-04-25T00:52:38;1.13;;;0.60;;
677;SDS011;321;48.814;9.132;2023-04-25T00:55:06;1.10;;;0.60;;
677;SDS011;321;48.814;9.132;2023-04-25T00:57:33;1.50;;;0.90;;
677;SDS011;321;48.814;9.132;2023-04-25T00:59:58;1.20;;;0.70;;
677;SDS011;321;48.814;9.132;2023-04-25T01:02:24;2.70;;;1.60;;
677;SDS011;321;48.814;9.132;2023-04-25T01:04:51;1.10;;;0.40;;
677;SDS011;321;48.814;9.132;2023-04-25T01:07:17;1.10;;;0.53;;
677;SDS011;321;48.814;9.132;2023-04-25T01:09:43;1.60;;;1.13;;
677;SDS011;321;48.814;9.132;2023-04-25T01:12:09;1.10;;;0.50;;
677;SDS011;321;48.814;9.132;2023-04-25T01:14:35;1.20;;;0.60;;
677;SDS011;321;48.814;9.132;2023-04-25T01:17:00;1.20;;;0.57;;
677;SDS011;321;48.814;9.132;2023-04-25T01:19:26;1.30;;;0.87;;
677;SDS011;321;48.814;9.132;2023-04-25T01:21:52;2.80;;;1.53;;
677;SDS011;321;48.814;9.132;2023-04-25T01:24:18;1.30;;;0.73;;
677;SDS011;321;48.814;9.132;2023-04-25T01:26:43;1.30;;;0.67;;
677;SDS011;321;48.814;9.132;2023-04-25T01:29:14;1.30;;;0.87;;
677;SDS011;321;48.814;9.132;2023-04-25T01:31:44;1.60;;;0.87;;
677;SDS011;321;48.814;9.132;2023-04-25T01:34:10;1.20;;;0.60;;
677;SDS011;321;48.814;9.132;2023-04-25T01:36:36;1.30;;;0.70;;
677;SDS011;321;48.814;9.132;2023-04-25T01:39:02;1.30;;;0.60;;
677;SDS011;321;48.814;9.132;2023-04-25T01:41:28;1.50;;;0.83;;
677;SDS011;321;48.814;9.132;2023-04-25T01:43:55;1.37;;;0.97;;
677;SDS011;321;48.814;9.132;2023-04-25T01:46:21;1.67;;;1.00;;
677;SDS011;321;48.814;9.132;2023-04-25T01:48:47;1.47;;;0.87;;
677;SDS011;321;48.814;9.132;2023-04-25T01:51:12;1.20;;;0.80;;
677;SDS011;321;48.814;9.132;2023-04-25T01:53:39;1.53;;;0.90;;
677;SDS011;321;48.814;9.132;2023-04-25T01:56:05;1.57;;;0.50;;
677;SDS011;321;48.814;9.132;2023-04-25T01:58:30;1.30;;;0.77;;
677;SDS011;321;48.814;9.132;2023-04-25T02:00:56;1.60;;;1.00;;
677;SDS011;321;48.814;9.132;2023-04-25T02:03:22;1.10;;;0.57;;
677;SDS011;321;48.814;9.132;2023-04-25T02:05:47;1.30;;;0.80;;
677;SDS011;321;48.814;9.132;2023-04-25T02:08:13;1.50;;;1.03;;
677;SDS011;321;48.814;9.132;2023-04-25T02:10:39;2.60;;;1.60;;
677;SDS011;321;48.814;9.132;2023-04-25T02:13:05;1.40;;;0.93;;
677;SDS011;321;48.814;9.132;2023-04-25T02:15:30;1.30;;;1.00;;
677;SDS011;321;48.814;9.132;2023-04-25T02:17:56;1.70;;;1.03;;
677;SDS011;321;48.814;9.132;2023-04-25T02:20:23;1.50;;;0.80;;
677;SDS011;321;48.814;9.132;2023-04-25T02:22:49;1.13;;;0.63;;
677;SDS011;321;48.814;9.132;2023-04-25T02:25:16;1.27;;;0.77;;
677;SDS011;321;48.814;9.132;2023-04-25T02:27:43;1.40;;;0.70;;
677;SDS011;321;48.814;9.132;2023-04-25T02:30:08;1.10;;;0.53;;
677;SDS011;321;48.814;9.132;2023-04-25T02:32:34;1.60;;;0.70;;
677;SDS011;321;48.814;9.132;2023-04-25T02:35:00;1.30;;;0.80;;
677;SDS011;321;48.814;9.132;2023-04-25T02:37:29;1.10;;;0.50;;
677;SDS011;321;48.814;9.132;2023-04-25T02:39:58;1.43;;;0.97;;
677;SDS011;321;48.814;9.132;2023-04-25T02:42:23;1.23;;;0.63;;
677;SDS011;321;48.814;9.132;2023-04-25T02:44:49;2.27;;;1.20;;
677;SDS011;321;48.814;9.132;2023-04-25T02:47:14;1.37;;;0.73;;
677;SDS011;321;48.814;9.132;2023-04-25T02:49:40;1.10;;;0.57;;
677;SDS011;321;48.814;9.132;2023-04-25T02:52:06;1.10;;;0.50;;
677;SDS011;321;48.814;9.132;2023-04-25T02:54:31;1.40;;;1.20;;
677;SDS011;321;48.814;9.132;2023-04-25T02:56:57;1.30;;;0.60;;
677;SDS011;321;48.814;9.132;2023-04-25T02:59:22;1.50;;;0.80;;
677;SDS011;321;48.814;9.132;2023-04-25T03:01:48;1.20;;;0.80;;
677;SDS011;321;48.814;9.132;2023-04-25T03:04:14;1.10;;;0.50;;
677;SDS011;321;48.814;9.132;2023-04-25T03:06:39;1.10;;;0.50;;
677;SDS011;321;48.814;9.132;2023-04-25T03:09:05;1.40;;;1.00;;
677;SDS011;321;48.814;9.132;2023-04-25T03:11:31;1.40;;;0.67;;
677;SDS011;321;48.814;9.132;2023-04-25T03:13:56;1.47;;;1.03;;
677;SDS011;321;48.814;9.132;2023-04-25T03:16:23;1.50;;;0.83;;
677;SDS011;321;48.814;9.132;2023-04-25T03:18:50;1.77;;;0.70;;
677;SDS011;321;48.814;9.132;2023-04-25T03:21:16;1.10;;;0.50;;
677;SDS011;321;48.814;9.132;2023-04-25T03:23:41;1.73;;;1.30;;
677;SDS011;321;48.814;9.132;2023-04-25T03:26:07;13.83;;;1.23;;
677;SDS011;321;48.814;9.132;2023-04-25T03:28:33;1.47;;;0.87;;
677;SDS011;321;48.814;9.132;2023-04-25T03:30:58;1.63;;;0.63;;
677;SDS011;321;48.814;9.132;2023-04-25T03:33:24;2.30;;;1.03;;
677;SDS011;321;48.814;9.132;2023-04-25T03:35:49;1.10;;;0.50;;
677;SDS011;321;48.814;9.132;2023-04-25T03:38:16;1.60;;;1.33;;
677;SDS011;321;48.814;9.132;2023-04-25T03:40:42;1.93;;;1.00;;
677;SDS011;321;48.814;9.132;2023-04-25T03:43:07;2.80;;;1.40;;
677;SDS011;321;48.814;9.132;2023-04-25T03:45:33;1.47;;;1.30;;
677;SDS011;321;48.814;9.132;2023-04-25T03:47:58;1.43;;;0.70;;
677;SDS011;321;48.814;9.132;2023-04-25T03:50:24;3.10;;;0.97;;
677;SDS011;321;48.814;9.132;2023-04-25T03:52:49;1.30;;;0.80;;
677;SDS011;321;48.814;9.132;2023-04-25T03:55:15;1.50;;;1.37;;
677;SDS011;321;48.814;9.132;2023-04-25T03:57:41;1.17;;;0.60;;
677;SDS011;321;48.814;9.132;2023-04-25T04:00:07;1.20;;;0.70;;
677;SDS011;321;48.814;9.132;2023-04-25T04:02:33;1.30;;;0.67;;
677;SDS011;321;48.814;9.132;2023-04-25T04:04:59;1.40;;;0.77;;
677;SDS011;321;48.814;9.132;2023-04-25T04:07:25;1.97;;;0.70;;
677;SDS011;321;48.814;9.132;2023-04-25T04:09:51;1.30;;;0.77;;
677;SDS011;321;48.814;9.132;2023-04-25T04:12:16;1.27;;;0.60;;
677;SDS011;321;48.814;9.132;2023-04-25T04:14:42;2.10;;;0.70;;
677;SDS011;321;48.814;9.132;2023-04-25T04:17:08;1.27;;;0.63;;
677;SDS011;321;48.814;9.132;2023-04-25T04:19:33;1.10;;;0.50;;
677;SDS011;321;48.814;9.132;2023-04-25T04:21:59;1.80;;;1.00;;
677;SDS011;321;48.814;9.132;2023-04-25T04:24:24;1.20;;;0.70;;
677;SDS011;321;48.814;9.132;2023-04-25T04:26:50;1.30;;;0.70;;
677;SDS011;321;48.814;9.132;2023-04-25T04:29:16;2.30;;;1.20;;
677;SDS011;321;48.814;9.132;2023-04-25T04:31:47;1.63;;;1.13;;
677;SDS011;321;48.814;9.132;2023-04-25T04:34:14;1.63;;;0.90;;
677;SDS011;321;48.814;9.132;2023-04-25T04:36:41;1.20;;;0.60;;
677;SDS011;321;48.814;9.132;2023-04-25T04:39:07;1.73;;;0.90;;
677;SDS011;321;48.814;9.132;2023-04-25T04:41:34;1.20;;;0.80;;
677;SDS011;321;48.814;9.132;2023-04-25T04:43:59;1.43;;;0.87;;
677;SDS011;321;48.814;9.132;2023-04-25T04:46:26;1.53;;;1.00;;
677;SDS011;321;48.814;9.132;2023-04-25T04:48:53;1.67;;;1.10;;
677;SDS011;321;48.814;9.132;2023-04-25T04:51:18;1.60;;;1.10;;
677;SDS011;321;48.814;9.132;2023-04-25T04:53:45;1.60;;;1.10;;
677;SDS011;321;48.814;9.132;2023-04-25T04:56:11;1.50;;;1.10;;
677;SDS011;321;48.814;9.132;2023-04-25T04:58:36;3.47;;;1.67;;
677;SDS011;321;48.814;9.132;2023-04-25T05:01:02;1.50;;;1.30;;
677;SDS011;321;48.814;9.132;2023-04-25T05:03:28;1.50;;;1.07;;
677;SDS011;321;48.814;9.132;2023-04-25T05:05:53;1.30;;;1.00;;
677;SDS011;321;48.814;9.132;2023-04-25T05:08:19;3.63;;;1.67;;
677;SDS011;321;48.814;9.132;2023-04-25T05:10:45;1.77;;;1.20;;
677;SDS011;321;48.814;9.132;2023-04-25T05:13:10;1.33;;;1.13;;
677;SDS011;321;48.814;9.132;2023-04-25T05:15:36;1.80;;;1.40;;
677;SDS011;321;48.814;9.132;2023-04-25T05:18:01;3.40;;;1.80;;
677;SDS011;321;48.814;9.132;2023-04-25T05:20:27;1.80;;;1.20;;
677;SDS011;321;48.814;9.132;2023-04-25T05:22:52;1.73;;;1.33;;
677;SDS011;321;48.814;9.132;2023-04-25T05:25:18;2.17;;;1.57;;
677;SDS011;321;48.814;9.132;2023-04-25T05:27:43;1.40;;;0.90;;
677;SDS011;321;48.814;9.132;2023-04-25T05:30:09;1.40;;;1.07;;
677;SDS011;321;48.814;9.132;2023-04-25T05:32:35;1.90;;;1.20;;
677;SDS011;321;48.814;9.132;2023-04-25T05:35:01;1.30;;;0.90;;
677;SDS011;321;48.814;9.132;2023-04-25T05:37:27;2.60;;;1.47;;
677;SDS011;321;48.814;9.132;2023-04-25T05:39:55;1.63;;;1.40;;
677;SDS011;321;48.814;9.132;2023-04-25T05:42:21;1.30;;;0.83;;
677;SDS011;321;48.814;9.132;2023-04-25T05:44:46;1.83;;;1.73;;
677;SDS011;321;48.814;9.132;2023-04-25T05:47:12;2.23;;;1.13;;
677;SDS011;321;48.814;9.132;2023-04-25T05:49:37;2.00;;;1.20;;
677;SDS011;321;48.814;9.132;2023-04-25T05:52:03;1.50;;;0.97;;
677;SDS011;321;48.814;9.132;2023-04-25T05:54:28;2.27;;;1.50;;
677;SDS011;321;48.814;9.132;2023-04-25T05:56:56;1.50;;;1.00;;
677;SDS011;321;48.814;9.132;2023-04-25T05:59:22;2.50;;;1.60;;
677;SDS011;321;48.814;9.132;2023-04-25T06:01:47;1.50;;;1.00;;
677;SDS011;321;48.814;9.132;2023-04-25T06:04:13;3.50;;;2.17;;
677;SDS011;321;48.814;9.132;2023-04-25T06:06:38;3.20;;;1.30;;
677;SDS011;321;48.814;9.132;2023-04-25T06:09:04;1.90;;;1.67;;
677;SDS011;321;48.814;9.132;2023-04-25T06:11:29;1.90;;;1.33;;
677;SDS011;321;48.814;9.132;2023-04-25T06:13:55;1.87;;;1.03;;
677;SDS011;321;48.814;9.132;2023-04-25T06:16:20;2.30;;;1.23;;
677;SDS011;321;48.814;9.132;2023-04-25T06:18:46;1.60;;;1.10;;
677;SDS011;321;48.814;9.132;2023-04-25T06:21:12;3.20;;;1.40;;
677;SDS011;321;48.814;9.132;2023-04-25T06:23:37;1.60;;;0.97;;
677;SDS011;321;48.814;9.132;2023-04-25T06:26:03;1.73;;;1.20;;
677;SDS011;321;48.814;9.132;2023-04-25T06:28:28;2.13;;;1.40;;
677;SDS011;321;48.814;9.132;2023-04-25T06:30:54;1.50;;;1.20;;
677;SDS011;321;48.814;9.132;2023-04-25T06:33:19;2.07;;;1.37;;
677;SDS011;321;48.814;9.132;2023-04-25T06:35:46;1.40;;;0.90;;
677;SDS011;321;48.814;9.132;2023-04-25T06:38:12;1.60;;;1.17;;
677;SDS011;321;48.814;9.132;2023-04-25T06:40:37;2.27;;;1.33;;
677;SDS011;321;48.814;9.132;2023-04-25T06:43:03;2.23;;;1.50;;
677;SDS011;321;48.814;9.132;2023-04-25T06:45:29;1.73;;;1.40;;
677;SDS011;321;48.814;9.132;2023-04-25T06:47:55;1.53;;;0.80;;
677;SDS011;321;48.814;9.132;2023-04-25T06:50:20;1.40;;;1.23;;
677;SDS011;321;48.814;9.132;2023-04-25T06:52:46;1.90;;;1.60;;
677;SDS011;321;48.814;9.132;2023-04-25T06:55:12;1.23;;;0.87;;
677;SDS011;321;48.814;9.132;2023-04-25T06:57:37;1.80;;;1.10;;
677;SDS011;321;48.814;9.132;2023-04-25T07:00:03;3.20;;;1.87;;
677;SDS011;321;48.814;9.132;2023-04-25T07:02:33;2.13;;;1.30;;
677;SDS011;321;48.814;9.132;2023-04-25T07:04:58;1.83;;;1.50;;
677;SDS011;321;48.814;9.132;2023-04-25T07:07:25;1.97;;;1.03;;
677;SDS011;321;48.814;9.132;2023-04-25T07:09:50;2.20;;;1.57;;
677;SDS011;321;48.814;9.132;2023-04-25T07:12:16;3.00;;;1.53;;
677;SDS011;321;48.814;9.132;2023-04-25T07:14:42;1.77;;;0.97;;
677;SDS011;321;48.814;9.132;2023-04-25T07:17:07;2.07;;;1.47;;
677;SDS011;321;48.814;9.132;2023-04-25T07:19:33;2.97;;;1.80;;
677;SDS011;321;48.814;9.132;2023-04-25T07:21:58;1.60;;;1.47;;
677;SDS011;321;48.814;9.132;2023-04-25T07:24:24;3.10;;;1.40;;
677;SDS011;321;48.814;9.132;2023-04-25T07:26:50;3.47;;;1.73;;
677;SDS011;321;48.814;9.132;2023-04-25T07:29:16;4.07;;;1.53;;
677;SDS011;321;48.814;9.132;2023-04-25T07:31:41;1.57;;;1.33;;
677;SDS011;321;48.814;9.132;2023-04-25T07:34:07;1.70;;;1.20;;
677;SDS011;321;48.814;9.132;2023-04-25T07:36:32;1.40;;;1.00;;
677;SDS011;321;48.814;9.132;2023-04-25T07:38:58;2.23;;;1.20;;
677;SDS011;321;48.814;9.132;2023-04-25T07:41:23;1.33;;;0.70;;
677;SDS011;321;48.814;9.132;2023-04-25T07:43:49;1.40;;;0.80;;
677;SDS011;321;48.814;9.132;2023-04-25T07:46:14;3.00;;;1.23;;
677;SDS011;321;48.814;9.132;2023-04-25T07:48:40;4.03;;;1.00;;
677;SDS011;321;48.814;9.132;2023-04-25T07:51:05;2.30;;;1.13;;
677;SDS011;321;48.814;9.132;2023-04-25T07:53:32;1.30;;;0.90;;
677;SDS011;321;48.814;9.132;2023-04-25T07:55:59;1.37;;;0.80;;
677;SDS011;321;48.814;9.132;2023-04-25T07:58:25;4.13;;;1.77;;
677;SDS011;321;48.814;9.132;2023-04-25T08:00:50;1.50;;;1.27;;
677;SDS011;321;48.814;9.132;2023-04-25T08:03:16;1.80;;;1.70;;
677;SDS011;321;48.814;9.132;2023-04-25T08:05:42;1.60;;;1.27;;
677;SDS011;321;48.814;9.132;2023-04-25T08:08:07;5.87;;;2.10;;
677;SDS011;321;48.814;9.132;2023-04-25T08:10:33;2.20;;;0.90;;
677;SDS011;321;48.814;9.132;2023-04-25T08:12:59;1.93;;;1.10;;
677;SDS011;321;48.814;9.132;2023-04-25T08:15:24;1.87;;;1.57;;
677;SDS011;321;48.814;9.132;2023-04-25T08:17:51;2.90;;;1.60;;
677;SDS011;321;48.814;9.132;2023-04-25T08:20:16;1.40;;;0.80;;
677;SDS011;321;48.814;9.132;2023-04-25T08:22:42;1.67;;;1.13;;
677;SDS011;321;48.814;9.132;2023-04-25T08:25:08;3.27;;;1.77;;
677;SDS011;321;48.814;9.132;2023-04-25T08:27:33;1.43;;;0.93;;
677;SDS011;321;48.814;9.132;2023-04-25T08:29:59;1.50;;;1.17;;
677;SDS011;321;48.814;9.132;2023-04-25T08:32:25;2.97;;;1.53;;
677;SDS011;321;48.814;9.132;2023-04-25T08:34:51;1.40;;;1.20;;
677;SDS011;321;48.814;9.132;2023-04-25T08:37:19;1.90;;;1.40;;
677;SDS011;321;48.814;9.132;2023-04-25T08:39:45;1.87;;;1.67;;
677;SDS011;321;48.814;9.132;2023-04-25T08:42:11;2.63;;;1.53;;
677;SDS011;321;48.814;9.132;2023-04-25T08:44:37;1.70;;;1.07;;
677;SDS011;321;48.814;9.132;2023-04-25T08:47:03;2.00;;;1.23;;
677;SDS011;321;48.814;9.132;2023-04-25T08:49:33;1.60;;;1.30;;
677;SDS011;321;48.814;9.132;2023-04-25T08:52:00;2.13;;;1.60;;
677;SDS011;321;48.814;9.132;2023-04-25T08:54:28;1.40;;;0.93;;
677;SDS011;321;48.814;9.132;2023-04-25T08:56:56;1.87;;;1.50;;
677;SDS011;321;48.814;9.132;2023-04-25T08:59:25;4.60;;;1.30;;
677;SDS011;321;48.814;9.132;2023-04-25T09:01:51;1.50;;;1.40;;
677;SDS011;321;48.814;9.132;2023-04-25T09:04:17;3.07;;;1.27;;
677;SDS011;321;48.814;9.132;2023-04-25T09:06:43;1.97;;;1.40;;
677;SDS011;321;48.814;9.132;2023-04-25T09:09:09;8.83;;;1.67;;
677;SDS011;321;48.814;9.132;2023-04-25T09:11:36;2.80;;;2.10;;
677;SDS011;321;48.814;9.132;2023-04-25T09:14:17;2.53;;;1.23;;
677;SDS011;321;48.814;9.132;2023-04-25T09:16:57;1.67;;;0.90;;
677;SDS011;321;48.814;9.132;2023-04-25T09:19:31;1.77;;;1.30;;
677;SDS011;321;48.814;9.132;2023-04-25T09:22:01;1.87;;;1.00;;
677;SDS011;321;48.814;9.132;2023-04-25T09:26:57;1.70;;;1.00;;
677;SDS011;321;48.814;9.132;2023-04-25T09:29:29;2.30;;;1.50;;
677;SDS011;321;48.814;9.132;2023-04-25T09:34:46;1.73;;;0.90;;
677;SDS011;321;48.814;9.132;2023-04-25T09:37:27;1.40;;;0.90;;
677;SDS011;321;48.814;9.132;2023-04-25T09:39:55;2.93;;;1.33;;
677;SDS011;321;48.814;9.132;2023-04-25T09:42:22;1.53;;;1.20;;
677;SDS011;321;48.814;9.132;2023-04-25T09:44:49;1.20;;;0.73;;
677;SDS011;321;48.814;9.132;2023-04-25T09:47:17;1.67;;;0.93;;
677;SDS011;321;48.814;9.132;2023-04-25T09:49:43;1.93;;;0.83;;
677;SDS011;321;48.814;9.132;2023-04-25T09:52:21;1.30;;;0.80;;
677;SDS011;321;48.814;9.132;2023-04-25T09:54:48;2.00;;;1.13;;
677;SDS011;321;48.814;9.132;2023-04-25T09:57:16;2.27;;;1.10;;
677;SDS011;321;48.814;9.132;2023-04-25T09:59:43;1.40;;;0.70;;
677;SDS011;321;48.814;9.132;2023-04-25T10:02:20;1.40;;;0.80;;
677;SDS011;321;48.814;9.132;2023-04-25T10:04:48;1.30;;;0.70;;
677;SDS011;321;48.814;9.132;2023-04-25T10:07:17;1.13;;;0.53;;
677;SDS011;321;48.814;9.132;2023-04-25T10:09:45;1.20;;;0.80;;
677;SDS011;321;48.814;9.132;2023-04-25T10:12:14;1.50;;;0.70;;
677;SDS011;321;48.814;9.132;2023-04-25T10:14:41;1.50;;;0.63;;
677;SDS011;321;48.814;9.132;2023-04-25T10:17:08;1.30;;;0.50;;
677;SDS011;321;48.814;9.132;2023-04-25T10:19:35;1.30;;;0.60;;
677;SDS011;321;48.814;9.132;2023-04-25T10:24:36;1.47;;;0.50;;
677;SDS011;321;48.814;9.132;2023-04-25T10:27:03;1.20;;;0.70;;
677;SDS011;321;48.814;9.132;2023-04-25T10:29:30;2.60;;;0.60;;
677;SDS011;321;48.814;9.132;2023-04-25T10:31:55;1.30;;;0.70;;
677;SDS011;321;48.814;9.132;2023-04-25T10:34:38;1.60;;;0.83;;
677;SDS011;321;48.814;9.132;2023-04-25T10:37:11;1.20;;;0.50;;
677;SDS011;321;48.814;9.132;2023-04-25T10:39:39;1.53;;;0.93;;
677;SDS011;321;48.814;9.132;2023-04-25T10:42:06;2.93;;;1.60;;
677;SDS011;321;48.814;9.132;2023-04-25T10:44:33;2.13;;;1.33;;
677;SDS011;321;48.814;9.132;2023-04-25T10:47:00;1.67;;;1.10;;
677;SDS011;321;48.814;9.132;2023-04-25T10:49:37;1.83;;;1.17;;
677;SDS011;321;48.814;9.132;2023-04-25T10:52:10;2.03;;;1.43;;
677;SDS011;321;48.814;9.132;2023-04-25T10:54:40;2.50;;;1.67;;
677;SDS011;321;48.814;9.132;2023-04-25T11:00:14;2.87;;;2.37;;
677;SDS011;321;48.814;9.132;2023-04-25T11:02:43;1.50;;;1.13;;
677;SDS011;321;48.814;9.132;2023-04-25T11:05:16;1.50;;;1.10;;
677;SDS011;321;48.814;9.132;2023-04-25T11:08:00;1.20;;;0.63;;
677;SDS011;321;48.814;9.132;2023-04-25T11:10:30;1.50;;;1.30;;
677;SDS011;321;48.814;9.132;2023-04-25T11:12:56;1.20;;;0.60;;
677;SDS011;321;48.814;9.132;2023-04-25T11:15:23;2.27;;;0.90;;
677;SDS011;321;48.814;9.132;2023-04-25T11:17:53;2.37;;;1.43;;
677;SDS011;321;48.814;9.132;2023-04-25T11:20:19;1.87;;;1.10;;
677;SDS011;321;48.814;9.132;2023-04-25T11:22:45;1.20;;;0.80;;
677;SDS011;321;48.814;9.132;2023-04-25T11:25:12;1.30;;;0.77;;
677;SDS011;321;48.814;9.132;2023-04-25T11:27:56;1.47;;;0.63;;
677;SDS011;321;48.814;9.132;2023-04-25T11:30:23;1.20;;;0.60;;
677;SDS011;321;48.814;9.132;2023-04-25T11:32:50;1.20;;;0.70;;
677;SDS011;321;48.814;9.132;2023-04-25T11:35:17;1.37;;;0.97;;
677;SDS011;321;48.814;9.132;2023-04-25T11:37:47;2.07;;;0.70;;
677;SDS011;321;48.814;9.132;2023-04-25T11:40:14;1.40;;;1.10;;
677;SDS011;321;48.814;9.132;2023-04-25T11:42:43;1.67;;;1.30;;
677;SDS011;321;48.814;9.132;2023-04-25T11:45:10;1.53;;;0.90;;
677;SDS011;321;48.814;9.132;2023-04-25T11:47:36;1.13;;;0.63;;
677;SDS011;321;48.814;9.132;2023-04-25T11:50:02;1.30;;;0.90;;
677;SDS011;321;48.814;9.132;2023-04-25T11:52:36;2.10;;;1.53;;
677;SDS011;321;48.814;9.132;2023-04-25T11:55:06;1.50;;;1.17;;
677;SDS011;321;48.814;9.132;2023-04-25T11:57:38;1.87;;;1.27;;
677;SDS011;321;48.814;9.132;2023-04-25T12:00:15;1.80;;;1.10;;
677;SDS011;321;48.814;9.132;2023-04-25T12:02:52;1.70;;;1.10;;
677;SDS011;321;48.814;9.132;2023-04-25T12:05:18;1.73;;;1.37;;
677;SDS011;321;48.814;9.132;2023-04-25T12:07:45;3.03;;;1.33;;
677;SDS011;321;48.814;9.132;2023-04-25T12:10:12;2.60;;;1.17;;
677;SDS011;321;48.814;9.132;2023-04-25T12:12:43;2.93;;;1.23;;
677;SDS011;321;48.814;9.132;2023-04-25T12:17:45;1.90;;;1.30;;
677;SDS011;321;48.814;9.132;2023-04-25T12:20:13;2.83;;;1.80;;
677;SDS011;321;48.814;9.132;2023-04-25T12:22:41;2.83;;;1.53;;
677;SDS011;321;48.814;9.132;2023-04-25T12:25:12;1.50;;;1.10;;
677;SDS011;321;48.814;9.132;2023-04-25T12:30:58;3.30;;;2.33;;
677;SDS011;321;48.814;9.132;2023-04-25T12:33:30;2.40;;;2.20;;
677;SDS011;321;48.814;9.132;2023-04-25T12:35:57;1.60;;;1.20;;
677;SDS011;321;48.814;9.132;2023-04-25T12:38:27;3.33;;;1.80;;
677;SDS011;321;48.814;9.132;2023-04-25T12:40:56;2.47;;;1.97;;
677;SDS011;321;48.814;9.132;2023-04-25T12:43:23;2.53;;;1.57;;
677;SDS011;321;48.814;9.132;2023-04-25T12:45:49;2.37;;;1.47;;
677;SDS011;321;48.814;9.132;2023-04-25T12:48:18;2.90;;;1.73;;
677;SDS011;321;48.814;9.132;2023-04-25T12:50:45;1.87;;;1.30;;
677;SDS011;321;48.814;9.132;2023-04-25T12:53:18;2.23;;;1.80;;
677;SDS011;321;48.814;9.132;2023-04-25T12:55:44;2.07;;;1.87;;
677;SDS011;321;48.814;9.132;2023-04-25T12:58:13;2.50;;;1.90;;
677;SDS011;321;48.814;9.132;2023-04-25T13:00:39;2.50;;;2.27;;
677;SDS011;321;48.814;9.132;2023-04-25T13:03:05;2.20;;;1.60;;
677;SDS011;321;48.814;9.132;2023-04-25T13:05:30;3.17;;;2.40;;
677;SDS011;321;48.814;9.132;2023-04-25T13:07:56;3.53;;;1.80;;
677;SDS011;321;48.814;9.132;2023-04-25T13:10:22;3.57;;;2.27;;
677;SDS011;321;48.814;9.132;2023-04-25T13:12:47;2.90;;;2.10;;
677;SDS011;321;48.814;9.132;2023-04-25T13:15:13;2.20;;;1.80;;
677;SDS011;321;48.814;9.132;2023-04-25T13:17:40;2.40;;;1.87;;
677;SDS011;321;48.814;9.132;2023-04-25T13:20:06;3.30;;;2.07;;
677;SDS011;321;48.814;9.132;2023-04-25T13:22:37;2.10;;;1.83;;
677;SDS011;321;48.814;9.132;2023-04-25T13:25:06;1.90;;;1.70;;
677;SDS011;321;48.814;9.132;2023-04-25T13:27:33;3.80;;;2.00;;
677;SDS011;321;48.814;9.132;2023-04-25T13:30:00;1.63;;;1.37;;
677;SDS011;321;48.814;9.132;2023-04-25T13:32:29;2.90;;;2.33;;
677;SDS011;321;48.814;9.132;2023-04-25T13:34:55;3.17;;;2.00;;
677;SDS011;321;48.814;9.132;2023-04-25T13:37:20;4.00;;;2.60;;
677;SDS011;321;48.814;9.132;2023-04-25T13:39:48;8.30;;;2.40;;
677;SDS011;321;48.814;9.132;2023-04-25T13:42:14;6.20;;;2.90;;
677;SDS011;321;48.814;9.132;2023-04-25T13:44:40;3.20;;;2.40;;
677;SDS011;321;48.814;9.132;2023-04-25T13:47:06;4.87;;;3.40;;
677;SDS011;321;48.814;9.132;2023-04-25T13:49:31;3.77;;;2.70;;
677;SDS011;321;48.814;9.132;2023-04-25T13:51:57;2.37;;;2.17;;
677;SDS011;321;48.814;9.132;2023-04-25T13:54:22;2.17;;;1.97;;
677;SDS011;321;48.814;9.132;2023-04-25T13:56:48;6.60;;;4.33;;
677;SDS011;321;48.814;9.132;2023-04-25T13:59:15;4.60;;;2.50;;
677;SDS011;321;48.814;9.132;2023-04-25T14:01:41;1.67;;;1.50;;
677;SDS011;321;48.814;9.132;2023-04-25T14:04:06;3.60;;;2.07;;
677;SDS011;321;48.814;9.132;2023-04-25T14:06:32;2.73;;;2.20;;
677;SDS011;321;48.814;9.132;2023-04-25T14:08:58;3.50;;;2.60;;
677;SDS011;321;48.814;9.132;2023-04-25T14:11:26;3.27;;;2.10;;
677;SDS011;321;48.814;9.132;2023-04-25T14:13:51;2.70;;;1.87;;
677;SDS011;321;48.814;9.132;2023-04-25T14:16:17;2.33;;;2.13;;
677;SDS011;321;48.814;9.132;2023-04-25T14:18:42;2.13;;;1.93;;
677;SDS011;321;48.814;9.132;2023-04-25T14:21:08;2.93;;;2.47;;
677;SDS011;321;48.814;9.132;2023-04-25T14:23:34;2.27;;;1.60;;
677;SDS011;321;48.814;9.132;2023-04-25T14:26:00;4.20;;;1.90;;
677;SDS011;321;48.814;9.132;2023-04-25T14:28:26;5.90;;;1.87;;
677;SDS011;321;48.814;9.132;2023-04-25T14:30:51;2.37;;;1.80;;
677;SDS011;321;48.814;9.132;2023-04-25T14:33:17;2.70;;;1.93;;
677;SDS011;321;48.814;9.132;2023-04-25T14:35:43;2.53;;;1.63;;
677;SDS011;321;48.814;9.132;2023-04-25T14:38:08;6.70;;;1.73;;
677;SDS011;321;48.814;9.132;2023-04-25T14:40:34;3.20;;;2.20;;
677;SDS011;321;48.814;9.132;2023-04-25T14:42:59;2.27;;;1.30;;
677;SDS011;321;48.814;9.132;2023-04-25T14:45:25;3.47;;;2.27;;
677;SDS011;321;48.814;9.132;2023-04-25T14:47:51;2.47;;;1.90;;
677;SDS011;321;48.814;9.132;2023-04-25T14:50:16;8.40;;;1.73;;
677;SDS011;321;48.814;9.132;2023-04-25T14:52:43;2.50;;;2.17;;
677;SDS011;321;48.814;9.132;2023-04-25T14:55:09;4.53;;;2.50;;
677;SDS011;321;48.814;9.132;2023-04-25T14:57:35;2.00;;;1.80;;
677;SDS011;321;48.814;9.132;2023-04-25T15:00:01;2.23;;;1.60;;
677;SDS011;321;48.814;9.132;2023-04-25T15:02:29;1.87;;;1.13;;
677;SDS011;321;48.814;9.132;2023-04-25T15:04:56;1.97;;;1.37;;
677;SDS011;321;48.814;9.132;2023-04-25T15:07:21;2.73;;;1.77;;
677;SDS011;321;48.814;9.132;2023-04-25T15:09:47;2.27;;;1.77;;
677;SDS011;321;48.814;9.132;2023-04-25T15:12:13;3.03;;;1.50;;
677;SDS011;321;48.814;9.132;2023-04-25T15:14:38;3.43;;;2.10;;
677;SDS011;321;48.814;9.132;2023-04-25T15:17:04;3.30;;;2.20;;
677;SDS011;321;48.814;9.132;2023-04-25T15:19:31;9.77;;;2.90;;
677;SDS011;321;48.814;9.132;2023-04-25T15:21:56;2.57;;;2.13;;
677;SDS011;321;48.814;9.132;2023-04-25T15:24:25;2.53;;;2.03;;
677;SDS011;321;48.814;9.132;2023-04-25T15:26:51;5.53;;;2.07;;
677;SDS011;321;48.814;9.132;2023-04-25T15:29:17;2.10;;;1.40;;
677;SDS011;321;48.814;9.132;2023-04-25T15:31:42;2.43;;;1.60;;
677;SDS011;321;48.814;9.132;2023-04-25T15:34:08;2.43;;;2.03;;
677;SDS011;321;48.814;9.132;2023-04-25T15:36:33;1.80;;;1.60;;
677;SDS011;321;48.814;9.132;2023-04-25T15:38:59;3.00;;;1.93;;
677;SDS011;321;48.814;9.132;2023-04-25T15:41:24;3.00;;;2.30;;
677;SDS011;321;48.814;9.132;2023-04-25T15:43:50;3.87;;;2.23;;
677;SDS011;321;48.814;9.132;2023-04-25T15:46:17;2.90;;;2.13;;
677;SDS011;321;48.814;9.132;2023-04-25T15:48:42;1.73;;;1.63;;
677;SDS011;321;48.814;9.132;2023-04-25T15:51:08;4.47;;;2.20;;
677;SDS011;321;48.814;9.132;2023-04-25T15:53:34;2.87;;;1.90;;
677;SDS011;321;48.814;9.132;2023-04-25T15:56:00;2.33;;;1.93;;
677;SDS011;321;48.814;9.132;2023-04-25T15:58:25;3.03;;;2.17;;